• Join FlightAware (Why Join?)
  • Login
  • US Flag 
07:37PM EST


 

Airport Tracker/Info


-or-


 

Live Flight TrackerFlight Track Log ✈ JBU1329 ✈ 30-Apr-2013 ✈ KBOS - KBWI

Flight Track Log - Related Links

Times and Time Zones

All times are in EDT time to prevent confusion due to time zone crossing. See the JBU1329 flight status page for this flight to view local times or setup timezone preferences in your user account.

Time Position Orientation Groundspeed Altitude Reporting Facility
EDT Latitude Longitude Course Direction KTS MPH feet Rate Location/Type
08:17AM 42.3500 -71.0167 258° West 150 173 700  Level KA90
08:19AM 42.3167 -70.9667 132° Southeast 216 249 3,300 2,400 Climbing KA90
08:20AM 42.0474 -71.9164 258° West  Level FlightAware Approximate
08:20AM 42.3167 -70.8667 90° East 254 292 6,300  Level KA90
08:21AM 42.0338 -72.0034 258° West  Level FlightAware Approximate
08:21AM 42.3167 -70.7500 90° East 280 322 10,200  Level KA90
08:22AM 42.0201 -72.0903 258° West  Level FlightAware Approximate
08:22AM 42.2581 -70.7233 161° South 345 397 11,200  Level Boston Center
08:23AM 42.1819 -70.7897 213° Southwest 334 384 14,200 2,820 Climbing Boston Center
08:24AM 42.1653 -70.9275 261° West 307 353 16,900 2,340 Climbing Boston Center
08:25AM 42.1503 -71.0681 262° West 342 394 18,900 2,220 Climbing Boston Center
08:26AM 42.1333 -71.2111 261° West 370 426 21,400 2,160 Climbing Boston Center
08:27AM 42.1158 -71.3569 261° West 386 444 23,200 1,800 Climbing Boston Center
08:28AM 42.0986 -71.5083 261° West 402 463 25,000 1,740 Climbing Boston Center
08:29AM 42.0747 -71.6597 258° West 414 476 26,700 1,560 Climbing Boston Center
08:30AM 42.0547 -71.8139 260° West 419 482 28,200 1,440 Climbing Boston Center
08:31AM 42.0347 -71.9733 260° West 430 495 29,600 1,380 Climbing Boston Center
08:32AM 42.0144 -72.1272 260° West 430 495 31,300 1,080 Climbing Boston Center
08:33AM 41.9897 -72.3200 260° West 430 495 32,000 300 Climbing Boston Center
08:34AM 41.9294 -72.4681 241° Southwest 435 501 32,000  Level Boston Center
08:35AM 41.8522 -72.6017 232° Southwest 447 514 32,000  Level Boston Center
08:36AM 41.7728 -72.7408 233° Southwest 460 529 32,000  Level Boston Center
08:37AM 41.6950 -72.8767 233° Southwest 466 536 32,000  Level Boston Center
08:38AM 41.6153 -73.0122 232° Southwest 466 536 32,000  Level Boston Center
08:39AM 41.5394 -73.1444 233° Southwest 466 536 32,000  Level Boston Center
08:40AM 41.4658 -73.2739 233° Southwest 461 531 32,000  Level Boston Center
08:41AM 41.3856 -73.4083 232° Southwest 461 531 32,000 -360 Level Boston Center
08:43AM 41.1997 -73.7217 232° Southwest 458 527 30,900 -1,140 Descending New York Center
08:44AM 41.1214 -73.8533 232° Southwest 458 527 28,200 -2,460 Descending New York Center
08:45AM 41.0494 -73.9764 232° Southwest 448 516 26,000 -1,140 Descending New York Center
08:46AM 40.9772 -74.0994 232° Southwest 438 504 26,000  Level New York Center
08:47AM 40.8922 -74.2325 230° Southwest 432 497 26,000  Level New York Center
08:48AM 40.8197 -74.3522 231° Southwest 432 497 26,000  Level New York Center
08:49AM 40.7453 -74.4714 231° Southwest 432 497 26,000  Level New York Center
08:50AM 40.6747 -74.5908 232° Southwest 432 497 26,000 -840 Level New York Center
08:51AM 40.6000 -74.7125 231° Southwest 432 497 24,400 -1,920 Descending New York Center
08:52AM 40.5253 -74.8256 229° Southwest 432 497 22,300 -2,220 Descending New York Center
08:53AM 40.4508 -74.9303 227° Southwest 409 471 20,100 -2,100 Descending New York Center
08:54AM 40.3761 -75.0375 228° Southwest 398 458 18,100 -1,080 Descending New York Center
08:55AM 40.3036 -75.1392 227° Southwest 398 458 18,000 -60 Descending New York Center
08:56AM 40.2311 -75.2406 227° Southwest 388 447 18,000  Level New York Center
08:57AM 40.1561 -75.3444 227° Southwest 393 452 18,000  Level New York Center
08:58AM 40.0814 -75.4425 225° Southwest 386 444 18,000  Level New York Center
08:59AM 40.0108 -75.5408 227° Southwest 386 444 18,000  Level New York Center
09:00AM 39.9400 -75.6442 228° Southwest 386 444 18,000  Level New York Center
09:01AM 39.8747 -75.7533 232° Southwest 386 444 18,000 -840 Level New York Center
09:02AM 39.8181 -75.8656 237° Southwest 386 444 16,400 -1,920 Descending New York Center
09:04AM 39.7167 -76.0667 237° Southwest 350 403 12,700 -1,380 Descending Potomac TRACON
09:06AM 39.6340 -76.1987 237° Southwest  Level FlightAware Approximate
09:06AM 39.6000 -76.2667 237° Southwest 325 374 11,300  Level Potomac TRACON
09:07AM 39.5667 -76.3667 247° West 297 342 9,900 -1,500 Descending Potomac TRACON
09:08AM 39.5167 -76.4500 232° Southwest 288 331 8,300 -1,620 Descending Potomac TRACON
09:09AM 39.4833 -76.5333 243° Southwest 287 330 6,700 -1,140 Descending Potomac TRACON
09:11AM 39.3608 -76.5872 218° Southwest  Level Estimated
09:11AM 39.4167 -76.7167 218° Southwest 273 314 4,900  Level Potomac TRACON
09:12AM 39.3833 -76.7833 237° Southwest 225 259 4,700 -540 Descending Potomac TRACON
09:13AM 39.3500 -76.8667 243° Southwest 207 238 3,900 -420 Descending Potomac TRACON
09:14AM 39.3500 -76.9167 270° West 211 243 3,900  Level Potomac TRACON
09:15AM 39.3333 -77.0000 256° West 208 239 3,900  Level Potomac TRACON
09:16AM 39.3000 -77.0667 237° Southwest 213 245 3,900  Level Potomac TRACON
09:17AM 39.3333 -77.0833 339° North 231 266 3,900  Level Potomac TRACON
09:18AM 39.3167 -77.0500 123° Southeast 203 234 3,900  Level Potomac TRACON
09:19AM 39.2833 -77.1000 229° Southwest 191 220 4,000  Climbing Potomac TRACON
09:20AM 39.2333 -77.0833 166° South 170 196 3,900  Descending Potomac TRACON
09:21AM 39.2000 -77.0833 180° South 169 194 4,000 -540 Climbing Potomac TRACON
09:22AM 39.1500 -77.0667 166° South 170 196 2,900 -600 Descending Potomac TRACON
09:23AM 39.1667 -77.0333 57° Northeast 181 208 2,900  Level Potomac TRACON
09:24AM 39.1833 -76.9833 67° East 160 184 2,900  Level Potomac TRACON
09:25AM 39.1833 -76.9500 90° East 136 157 2,900  Level Potomac TRACON
09:26AM 39.1833 -76.9000 90° East 134 154 2,900  Level Potomac TRACON